sensor_id;sensor_type;location;lat;lon;timestamp;P1;durP1;ratioP1;P2;durP2;ratioP2
22417;SDS011;11376;50.932;4.442;2024-03-02T00:00:20;1.73;;;0.20;;
22417;SDS011;11376;50.932;4.442;2024-03-02T00:02:50;1.40;;;0.20;;
22417;SDS011;11376;50.932;4.442;2024-03-02T00:05:20;1.80;;;0.20;;
22417;SDS011;11376;50.932;4.442;2024-03-02T00:07:54;0.50;;;0.23;;
22417;SDS011;11376;50.932;4.442;2024-03-02T00:10:22;0.67;;;0.20;;
22417;SDS011;11376;50.932;4.442;2024-03-02T00:12:56;1.83;;;0.23;;
22417;SDS011;11376;50.932;4.442;2024-03-02T00:15:29;0.37;;;0.20;;
22417;SDS011;11376;50.932;4.442;2024-03-02T00:18:07;0.50;;;0.20;;
22417;SDS011;11376;50.932;4.442;2024-03-02T00:20:36;0.30;;;0.07;;
22417;SDS011;11376;50.932;4.442;2024-03-02T00:23:05;1.93;;;0.30;;
22417;SDS011;11376;50.932;4.442;2024-03-02T00:28:18;1.60;;;0.40;;
22417;SDS011;11376;50.932;4.442;2024-03-02T00:30:56;0.87;;;0.20;;
22417;SDS011;11376;50.932;4.442;2024-03-02T00:33:23;0.73;;;0.20;;
22417;SDS011;11376;50.932;4.442;2024-03-02T00:35:51;0.30;;;0.10;;
22417;SDS011;11376;50.932;4.442;2024-03-02T00:38:18;2.43;;;0.30;;
22417;SDS011;11376;50.932;4.442;2024-03-02T00:40:44;1.17;;;0.13;;
22417;SDS011;11376;50.932;4.442;2024-03-02T00:46:20;1.17;;;0.20;;
22417;SDS011;11376;50.932;4.442;2024-03-02T00:48:48;1.70;;;0.20;;
22417;SDS011;11376;50.932;4.442;2024-03-02T00:51:21;1.07;;;0.10;;
22417;SDS011;11376;50.932;4.442;2024-03-02T00:53:49;1.17;;;0.50;;
22417;SDS011;11376;50.932;4.442;2024-03-02T00:56:15;1.03;;;0.20;;
22417;SDS011;11376;50.932;4.442;2024-03-02T00:58:41;1.60;;;0.20;;
22417;SDS011;11376;50.932;4.442;2024-03-02T01:01:07;0.30;;;0.20;;
22417;SDS011;11376;50.932;4.442;2024-03-02T01:03:34;0.60;;;0.13;;
22417;SDS011;11376;50.932;4.442;2024-03-02T01:06:00;0.97;;;0.23;;
22417;SDS011;11376;50.932;4.442;2024-03-02T01:08:26;1.67;;;0.20;;
22417;SDS011;11376;50.932;4.442;2024-03-02T01:10:51;1.93;;;0.30;;
22417;SDS011;11376;50.932;4.442;2024-03-02T01:13:17;0.47;;;0.10;;
22417;SDS011;11376;50.932;4.442;2024-03-02T01:15:43;0.20;;;0.10;;
22417;SDS011;11376;50.932;4.442;2024-03-02T01:18:09;1.97;;;0.20;;
22417;SDS011;11376;50.932;4.442;2024-03-02T01:20:34;0.37;;;0.10;;
22417;SDS011;11376;50.932;4.442;2024-03-02T01:23:00;1.00;;;0.10;;
22417;SDS011;11376;50.932;4.442;2024-03-02T01:25:26;0.57;;;0.17;;
22417;SDS011;11376;50.932;4.442;2024-03-02T01:27:51;0.20;;;0.00;;
22417;SDS011;11376;50.932;4.442;2024-03-02T01:30:17;0.50;;;0.20;;
22417;SDS011;11376;50.932;4.442;2024-03-02T01:32:43;0.90;;;0.13;;
22417;SDS011;11376;50.932;4.442;2024-03-02T01:35:09;2.87;;;0.10;;
22417;SDS011;11376;50.932;4.442;2024-03-02T01:37:35;0.70;;;0.20;;
22417;SDS011;11376;50.932;4.442;2024-03-02T01:40:00;0.57;;;0.10;;
22417;SDS011;11376;50.932;4.442;2024-03-02T01:42:26;0.30;;;0.03;;
22417;SDS011;11376;50.932;4.442;2024-03-02T01:44:52;0.57;;;0.20;;
22417;SDS011;11376;50.932;4.442;2024-03-02T01:47:17;0.30;;;0.20;;
22417;SDS011;11376;50.932;4.442;2024-03-02T01:49:43;0.53;;;0.10;;
22417;SDS011;11376;50.932;4.442;2024-03-02T01:52:09;0.90;;;0.20;;
22417;SDS011;11376;50.932;4.442;2024-03-02T01:54:34;1.33;;;0.20;;
22417;SDS011;11376;50.932;4.442;2024-03-02T01:57:00;0.57;;;0.20;;
22417;SDS011;11376;50.932;4.442;2024-03-02T01:59:26;3.70;;;0.20;;
22417;SDS011;11376;50.932;4.442;2024-03-02T02:01:52;4.27;;;0.20;;
22417;SDS011;11376;50.932;4.442;2024-03-02T02:04:18;1.87;;;0.33;;
22417;SDS011;11376;50.932;4.442;2024-03-02T02:06:46;2.80;;;0.37;;
22417;SDS011;11376;50.932;4.442;2024-03-02T02:09:12;2.33;;;0.30;;
22417;SDS011;11376;50.932;4.442;2024-03-02T02:11:37;0.73;;;0.20;;
22417;SDS011;11376;50.932;4.442;2024-03-02T02:14:03;1.27;;;0.10;;
22417;SDS011;11376;50.932;4.442;2024-03-02T02:16:29;1.30;;;0.20;;
22417;SDS011;11376;50.932;4.442;2024-03-02T02:18:54;0.97;;;0.20;;
22417;SDS011;11376;50.932;4.442;2024-03-02T02:21:23;1.07;;;0.20;;
22417;SDS011;11376;50.932;4.442;2024-03-02T02:23:49;2.23;;;0.30;;
22417;SDS011;11376;50.932;4.442;2024-03-02T02:26:15;2.10;;;0.20;;
22417;SDS011;11376;50.932;4.442;2024-03-02T02:28:41;1.40;;;0.27;;
22417;SDS011;11376;50.932;4.442;2024-03-02T02:31:15;3.13;;;0.40;;
22417;SDS011;11376;50.932;4.442;2024-03-02T02:33:41;1.23;;;0.10;;
22417;SDS011;11376;50.932;4.442;2024-03-02T02:36:08;3.97;;;0.33;;
22417;SDS011;11376;50.932;4.442;2024-03-02T02:38:36;3.10;;;0.37;;
22417;SDS011;11376;50.932;4.442;2024-03-02T02:41:05;0.80;;;0.10;;
22417;SDS011;11376;50.932;4.442;2024-03-02T02:43:31;1.13;;;0.20;;
22417;SDS011;11376;50.932;4.442;2024-03-02T02:45:56;0.77;;;0.20;;
22417;SDS011;11376;50.932;4.442;2024-03-02T02:48:22;2.77;;;0.30;;
22417;SDS011;11376;50.932;4.442;2024-03-02T02:50:48;2.83;;;0.30;;
22417;SDS011;11376;50.932;4.442;2024-03-02T02:53:13;4.07;;;0.33;;
22417;SDS011;11376;50.932;4.442;2024-03-02T02:55:39;3.77;;;0.30;;
22417;SDS011;11376;50.932;4.442;2024-03-02T02:58:09;4.63;;;0.50;;
22417;SDS011;11376;50.932;4.442;2024-03-02T03:00:34;2.83;;;0.40;;
22417;SDS011;11376;50.932;4.442;2024-03-02T03:03:01;2.67;;;0.40;;
22417;SDS011;11376;50.932;4.442;2024-03-02T03:05:27;2.00;;;0.30;;
22417;SDS011;11376;50.932;4.442;2024-03-02T03:07:53;2.57;;;0.40;;
22417;SDS011;11376;50.932;4.442;2024-03-02T03:10:19;1.23;;;0.20;;
22417;SDS011;11376;50.932;4.442;2024-03-02T03:12:47;2.40;;;0.40;;
22417;SDS011;11376;50.932;4.442;2024-03-02T03:15:14;2.53;;;0.40;;
22417;SDS011;11376;50.932;4.442;2024-03-02T03:17:41;1.57;;;0.37;;
22417;SDS011;11376;50.932;4.442;2024-03-02T03:20:07;2.23;;;0.30;;
22417;SDS011;11376;50.932;4.442;2024-03-02T03:22:36;4.53;;;0.30;;
22417;SDS011;11376;50.932;4.442;2024-03-02T03:25:02;1.33;;;0.50;;
22417;SDS011;11376;50.932;4.442;2024-03-02T03:27:28;2.43;;;0.30;;
22417;SDS011;11376;50.932;4.442;2024-03-02T03:29:54;0.63;;;0.27;;
22417;SDS011;11376;50.932;4.442;2024-03-02T03:32:20;2.07;;;0.40;;
22417;SDS011;11376;50.932;4.442;2024-03-02T03:34:45;3.13;;;0.50;;
22417;SDS011;11376;50.932;4.442;2024-03-02T03:37:12;2.10;;;0.23;;
22417;SDS011;11376;50.932;4.442;2024-03-02T03:39:38;2.73;;;0.30;;
22417;SDS011;11376;50.932;4.442;2024-03-02T03:42:04;5.17;;;0.60;;
22417;SDS011;11376;50.932;4.442;2024-03-02T03:44:30;0.83;;;0.13;;
22417;SDS011;11376;50.932;4.442;2024-03-02T03:46:55;2.27;;;0.37;;
22417;SDS011;11376;50.932;4.442;2024-03-02T03:49:21;2.40;;;0.50;;
22417;SDS011;11376;50.932;4.442;2024-03-02T03:51:47;1.20;;;0.40;;
22417;SDS011;11376;50.932;4.442;2024-03-02T03:54:13;1.40;;;0.37;;
22417;SDS011;11376;50.932;4.442;2024-03-02T03:56:38;5.23;;;0.60;;
22417;SDS011;11376;50.932;4.442;2024-03-02T03:59:04;2.97;;;0.50;;
22417;SDS011;11376;50.932;4.442;2024-03-02T04:01:30;3.03;;;0.47;;
22417;SDS011;11376;50.932;4.442;2024-03-02T04:03:56;6.73;;;0.47;;
22417;SDS011;11376;50.932;4.442;2024-03-02T04:06:23;2.57;;;0.60;;
22417;SDS011;11376;50.932;4.442;2024-03-02T04:08:48;1.27;;;0.33;;
22417;SDS011;11376;50.932;4.442;2024-03-02T04:11:14;1.70;;;0.40;;
22417;SDS011;11376;50.932;4.442;2024-03-02T04:13:40;3.00;;;0.50;;
22417;SDS011;11376;50.932;4.442;2024-03-02T04:16:05;2.10;;;0.40;;
22417;SDS011;11376;50.932;4.442;2024-03-02T04:18:31;3.07;;;0.40;;
22417;SDS011;11376;50.932;4.442;2024-03-02T04:21:03;3.40;;;0.30;;
22417;SDS011;11376;50.932;4.442;2024-03-02T04:23:28;4.77;;;0.60;;
22417;SDS011;11376;50.932;4.442;2024-03-02T04:25:54;4.97;;;0.90;;
22417;SDS011;11376;50.932;4.442;2024-03-02T04:28:20;2.53;;;0.40;;
22417;SDS011;11376;50.932;4.442;2024-03-02T04:30:46;2.87;;;0.40;;
22417;SDS011;11376;50.932;4.442;2024-03-02T04:33:11;2.63;;;0.60;;
22417;SDS011;11376;50.932;4.442;2024-03-02T04:35:37;2.43;;;0.50;;
22417;SDS011;11376;50.932;4.442;2024-03-02T04:38:03;2.33;;;0.40;;
22417;SDS011;11376;50.932;4.442;2024-03-02T04:40:28;2.97;;;0.50;;
22417;SDS011;11376;50.932;4.442;2024-03-02T04:42:54;4.30;;;0.50;;
22417;SDS011;11376;50.932;4.442;2024-03-02T04:45:20;3.60;;;0.37;;
22417;SDS011;11376;50.932;4.442;2024-03-02T04:47:45;2.93;;;0.63;;
22417;SDS011;11376;50.932;4.442;2024-03-02T04:50:11;2.17;;;0.47;;
22417;SDS011;11376;50.932;4.442;2024-03-02T04:52:36;2.43;;;0.40;;
22417;SDS011;11376;50.932;4.442;2024-03-02T04:55:02;2.07;;;0.40;;
22417;SDS011;11376;50.932;4.442;2024-03-02T04:57:47;4.07;;;0.40;;
22417;SDS011;11376;50.932;4.442;2024-03-02T05:00:13;1.03;;;0.23;;
22417;SDS011;11376;50.932;4.442;2024-03-02T05:02:38;1.80;;;0.40;;
22417;SDS011;11376;50.932;4.442;2024-03-02T05:05:04;1.70;;;0.50;;
22417;SDS011;11376;50.932;4.442;2024-03-02T05:07:30;3.60;;;0.40;;
22417;SDS011;11376;50.932;4.442;2024-03-02T05:09:55;2.53;;;0.60;;
22417;SDS011;11376;50.932;4.442;2024-03-02T05:12:21;4.30;;;0.57;;
22417;SDS011;11376;50.932;4.442;2024-03-02T05:15:05;3.30;;;0.30;;
22417;SDS011;11376;50.932;4.442;2024-03-02T05:17:32;5.23;;;0.60;;
22417;SDS011;11376;50.932;4.442;2024-03-02T05:19:58;3.33;;;0.60;;
22417;SDS011;11376;50.932;4.442;2024-03-02T05:22:23;2.77;;;0.50;;
22417;SDS011;11376;50.932;4.442;2024-03-02T05:24:49;4.13;;;0.57;;
22417;SDS011;11376;50.932;4.442;2024-03-02T05:27:15;3.47;;;0.63;;
22417;SDS011;11376;50.932;4.442;2024-03-02T05:29:40;3.57;;;0.60;;
22417;SDS011;11376;50.932;4.442;2024-03-02T05:32:06;4.13;;;0.50;;
22417;SDS011;11376;50.932;4.442;2024-03-02T05:34:32;2.93;;;0.53;;
22417;SDS011;11376;50.932;4.442;2024-03-02T05:37:00;1.93;;;0.43;;
22417;SDS011;11376;50.932;4.442;2024-03-02T05:39:26;4.33;;;0.70;;
22417;SDS011;11376;50.932;4.442;2024-03-02T05:41:51;1.90;;;0.37;;
22417;SDS011;11376;50.932;4.442;2024-03-02T05:44:17;4.07;;;0.40;;
22417;SDS011;11376;50.932;4.442;2024-03-02T05:46:43;4.27;;;0.60;;
22417;SDS011;11376;50.932;4.442;2024-03-02T05:49:09;4.53;;;0.60;;
22417;SDS011;11376;50.932;4.442;2024-03-02T05:51:35;3.37;;;0.60;;
22417;SDS011;11376;50.932;4.442;2024-03-02T05:54:01;3.03;;;0.73;;
22417;SDS011;11376;50.932;4.442;2024-03-02T05:56:27;4.63;;;0.50;;
22417;SDS011;11376;50.932;4.442;2024-03-02T05:58:53;4.23;;;0.47;;
22417;SDS011;11376;50.932;4.442;2024-03-02T06:01:45;1.83;;;0.50;;
22417;SDS011;11376;50.932;4.442;2024-03-02T06:04:12;1.97;;;0.33;;
22417;SDS011;11376;50.932;4.442;2024-03-02T06:06:38;5.20;;;0.70;;
22417;SDS011;11376;50.932;4.442;2024-03-02T06:09:04;2.97;;;0.70;;
22417;SDS011;11376;50.932;4.442;2024-03-02T06:11:33;3.77;;;0.70;;
22417;SDS011;11376;50.932;4.442;2024-03-02T06:13:59;5.37;;;0.70;;
22417;SDS011;11376;50.932;4.442;2024-03-02T06:16:24;4.70;;;0.70;;
22417;SDS011;11376;50.932;4.442;2024-03-02T06:18:50;4.67;;;0.87;;
22417;SDS011;11376;50.932;4.442;2024-03-02T06:21:16;5.83;;;0.80;;
22417;SDS011;11376;50.932;4.442;2024-03-02T06:23:43;5.07;;;0.67;;
22417;SDS011;11376;50.932;4.442;2024-03-02T06:26:09;6.60;;;1.00;;
22417;SDS011;11376;50.932;4.442;2024-03-02T06:28:34;3.43;;;0.90;;
22417;SDS011;11376;50.932;4.442;2024-03-02T06:31:00;5.80;;;0.90;;
22417;SDS011;11376;50.932;4.442;2024-03-02T06:33:26;7.70;;;1.40;;
22417;SDS011;11376;50.932;4.442;2024-03-02T06:35:53;7.53;;;0.90;;
22417;SDS011;11376;50.932;4.442;2024-03-02T06:38:19;3.67;;;0.80;;
22417;SDS011;11376;50.932;4.442;2024-03-02T06:40:44;4.77;;;1.10;;
22417;SDS011;11376;50.932;4.442;2024-03-02T06:43:15;6.40;;;0.90;;
22417;SDS011;11376;50.932;4.442;2024-03-02T06:45:41;5.63;;;0.90;;
22417;SDS011;11376;50.932;4.442;2024-03-02T06:48:07;2.80;;;0.60;;
22417;SDS011;11376;50.932;4.442;2024-03-02T06:50:32;6.43;;;1.10;;
22417;SDS011;11376;50.932;4.442;2024-03-02T06:52:58;3.30;;;0.60;;
22417;SDS011;11376;50.932;4.442;2024-03-02T06:55:23;4.53;;;0.80;;
22417;SDS011;11376;50.932;4.442;2024-03-02T06:57:50;3.00;;;0.80;;
22417;SDS011;11376;50.932;4.442;2024-03-02T07:00:16;3.57;;;0.60;;
22417;SDS011;11376;50.932;4.442;2024-03-02T07:02:43;7.33;;;0.90;;
22417;SDS011;11376;50.932;4.442;2024-03-02T07:05:09;4.33;;;0.97;;
22417;SDS011;11376;50.932;4.442;2024-03-02T07:07:35;3.87;;;0.60;;
22417;SDS011;11376;50.932;4.442;2024-03-02T07:10:01;3.43;;;0.40;;
22417;SDS011;11376;50.932;4.442;2024-03-02T07:12:28;3.53;;;0.80;;
22417;SDS011;11376;50.932;4.442;2024-03-02T07:14:54;4.37;;;0.80;;
22417;SDS011;11376;50.932;4.442;2024-03-02T07:17:28;3.60;;;0.83;;
22417;SDS011;11376;50.932;4.442;2024-03-02T07:19:55;5.20;;;0.80;;
22417;SDS011;11376;50.932;4.442;2024-03-02T07:22:21;4.10;;;0.90;;
22417;SDS011;11376;50.932;4.442;2024-03-02T07:24:47;7.47;;;1.27;;
22417;SDS011;11376;50.932;4.442;2024-03-02T07:27:14;6.03;;;0.90;;
22417;SDS011;11376;50.932;4.442;2024-03-02T07:29:41;5.93;;;0.90;;
22417;SDS011;11376;50.932;4.442;2024-03-02T07:32:07;5.83;;;1.00;;
22417;SDS011;11376;50.932;4.442;2024-03-02T07:34:33;4.23;;;0.70;;
22417;SDS011;11376;50.932;4.442;2024-03-02T07:36:59;3.37;;;0.73;;
22417;SDS011;11376;50.932;4.442;2024-03-02T07:39:25;3.60;;;0.67;;
22417;SDS011;11376;50.932;4.442;2024-03-02T07:41:50;5.27;;;1.07;;
22417;SDS011;11376;50.932;4.442;2024-03-02T07:44:16;6.67;;;0.77;;
22417;SDS011;11376;50.932;4.442;2024-03-02T07:46:44;4.87;;;0.90;;
22417;SDS011;11376;50.932;4.442;2024-03-02T07:49:11;7.73;;;1.00;;
22417;SDS011;11376;50.932;4.442;2024-03-02T07:51:39;7.23;;;1.00;;
22417;SDS011;11376;50.932;4.442;2024-03-02T07:54:05;8.10;;;1.07;;
22417;SDS011;11376;50.932;4.442;2024-03-02T07:56:30;5.07;;;1.17;;
22417;SDS011;11376;50.932;4.442;2024-03-02T07:58:56;5.50;;;1.00;;
22417;SDS011;11376;50.932;4.442;2024-03-02T08:01:25;7.17;;;0.90;;
22417;SDS011;11376;50.932;4.442;2024-03-02T08:03:52;5.33;;;0.80;;
22417;SDS011;11376;50.932;4.442;2024-03-02T08:06:18;6.90;;;0.90;;
22417;SDS011;11376;50.932;4.442;2024-03-02T08:08:46;4.90;;;0.80;;
22417;SDS011;11376;50.932;4.442;2024-03-02T08:11:12;6.33;;;0.90;;
22417;SDS011;11376;50.932;4.442;2024-03-02T08:13:38;6.00;;;0.83;;
22417;SDS011;11376;50.932;4.442;2024-03-02T08:16:03;5.30;;;1.00;;
22417;SDS011;11376;50.932;4.442;2024-03-02T08:18:32;7.43;;;0.80;;
22417;SDS011;11376;50.932;4.442;2024-03-02T08:20:57;3.90;;;0.77;;
22417;SDS011;11376;50.932;4.442;2024-03-02T08:23:23;9.60;;;1.13;;
22417;SDS011;11376;50.932;4.442;2024-03-02T08:25:49;3.13;;;0.77;;
22417;SDS011;11376;50.932;4.442;2024-03-02T08:28:14;6.00;;;0.90;;
22417;SDS011;11376;50.932;4.442;2024-03-02T08:30:40;5.47;;;0.90;;
22417;SDS011;11376;50.932;4.442;2024-03-02T08:33:05;5.03;;;0.80;;
22417;SDS011;11376;50.932;4.442;2024-03-02T08:35:31;9.13;;;0.97;;
22417;SDS011;11376;50.932;4.442;2024-03-02T08:38:01;4.87;;;0.67;;
22417;SDS011;11376;50.932;4.442;2024-03-02T08:40:28;5.33;;;0.60;;
22417;SDS011;11376;50.932;4.442;2024-03-02T08:42:53;6.63;;;0.90;;
22417;SDS011;11376;50.932;4.442;2024-03-02T08:45:19;7.23;;;0.70;;
22417;SDS011;11376;50.932;4.442;2024-03-02T08:47:45;7.13;;;0.80;;
22417;SDS011;11376;50.932;4.442;2024-03-02T08:50:11;4.23;;;0.70;;
22417;SDS011;11376;50.932;4.442;2024-03-02T08:52:37;5.93;;;0.70;;
22417;SDS011;11376;50.932;4.442;2024-03-02T08:55:02;4.70;;;0.77;;
22417;SDS011;11376;50.932;4.442;2024-03-02T08:57:28;3.57;;;0.60;;
22417;SDS011;11376;50.932;4.442;2024-03-02T08:59:54;5.20;;;0.70;;
22417;SDS011;11376;50.932;4.442;2024-03-02T09:02:20;5.20;;;0.90;;
22417;SDS011;11376;50.932;4.442;2024-03-02T09:04:45;7.73;;;0.90;;
22417;SDS011;11376;50.932;4.442;2024-03-02T09:07:11;4.50;;;0.70;;
22417;SDS011;11376;50.932;4.442;2024-03-02T09:09:37;7.57;;;0.70;;
22417;SDS011;11376;50.932;4.442;2024-03-02T09:12:04;6.73;;;0.90;;
22417;SDS011;11376;50.932;4.442;2024-03-02T09:14:30;8.67;;;1.17;;
22417;SDS011;11376;50.932;4.442;2024-03-02T09:16:56;5.53;;;0.70;;
22417;SDS011;11376;50.932;4.442;2024-03-02T09:19:21;7.23;;;1.10;;
22417;SDS011;11376;50.932;4.442;2024-03-02T09:21:47;3.33;;;0.70;;
22417;SDS011;11376;50.932;4.442;2024-03-02T09:24:13;4.50;;;0.70;;
22417;SDS011;11376;50.932;4.442;2024-03-02T09:26:38;6.80;;;0.90;;
22417;SDS011;11376;50.932;4.442;2024-03-02T09:29:04;6.70;;;0.80;;
22417;SDS011;11376;50.932;4.442;2024-03-02T09:31:29;6.50;;;1.00;;
22417;SDS011;11376;50.932;4.442;2024-03-02T09:33:55;8.40;;;1.07;;
22417;SDS011;11376;50.932;4.442;2024-03-02T09:36:21;5.30;;;0.73;;
22417;SDS011;11376;50.932;4.442;2024-03-02T09:38:47;8.50;;;0.73;;
22417;SDS011;11376;50.932;4.442;2024-03-02T09:41:16;8.47;;;0.90;;
22417;SDS011;11376;50.932;4.442;2024-03-02T09:43:42;5.20;;;0.73;;
22417;SDS011;11376;50.932;4.442;2024-03-02T09:46:10;6.03;;;0.80;;
22417;SDS011;11376;50.932;4.442;2024-03-02T09:48:37;8.03;;;0.93;;
22417;SDS011;11376;50.932;4.442;2024-03-02T09:51:03;4.87;;;0.73;;
22417;SDS011;11376;50.932;4.442;2024-03-02T09:53:31;3.23;;;0.70;;
22417;SDS011;11376;50.932;4.442;2024-03-02T09:55:58;4.23;;;0.73;;
22417;SDS011;11376;50.932;4.442;2024-03-02T09:58:25;7.10;;;1.10;;
22417;SDS011;11376;50.932;4.442;2024-03-02T10:00:51;9.50;;;0.90;;
22417;SDS011;11376;50.932;4.442;2024-03-02T10:03:16;3.27;;;0.60;;
22417;SDS011;11376;50.932;4.442;2024-03-02T10:05:44;4.07;;;0.60;;
22417;SDS011;11376;50.932;4.442;2024-03-02T10:08:09;4.77;;;0.60;;
22417;SDS011;11376;50.932;4.442;2024-03-02T10:10:36;4.07;;;0.50;;
22417;SDS011;11376;50.932;4.442;2024-03-02T10:13:05;9.17;;;1.00;;
22417;SDS011;11376;50.932;4.442;2024-03-02T10:15:32;6.57;;;0.90;;
22417;SDS011;11376;50.932;4.442;2024-03-02T10:17:58;6.10;;;0.83;;
22417;SDS011;11376;50.932;4.442;2024-03-02T10:20:24;4.70;;;0.87;;
22417;SDS011;11376;50.932;4.442;2024-03-02T10:22:51;7.70;;;1.03;;
22417;SDS011;11376;50.932;4.442;2024-03-02T10:25:29;7.57;;;1.00;;
22417;SDS011;11376;50.932;4.442;2024-03-02T10:27:58;6.23;;;0.93;;
22417;SDS011;11376;50.932;4.442;2024-03-02T10:30:30;6.63;;;0.80;;
22417;SDS011;11376;50.932;4.442;2024-03-02T10:32:55;5.63;;;0.88;;
22417;SDS011;11376;50.932;4.442;2024-03-02T10:35:21;4.93;;;0.97;;
22417;SDS011;11376;50.932;4.442;2024-03-02T10:37:51;6.60;;;0.80;;
22417;SDS011;11376;50.932;4.442;2024-03-02T10:40:17;5.13;;;1.20;;
22417;SDS011;11376;50.932;4.442;2024-03-02T10:42:45;4.80;;;0.88;;
22417;SDS011;11376;50.932;4.442;2024-03-02T10:45:13;5.05;;;0.80;;
22417;SDS011;11376;50.932;4.442;2024-03-02T10:47:41;7.82;;;1.05;;
22417;SDS011;11376;50.932;4.442;2024-03-02T10:50:09;3.65;;;0.80;;
22417;SDS011;11376;50.932;4.442;2024-03-02T10:52:35;4.97;;;0.90;;
22417;SDS011;11376;50.932;4.442;2024-03-02T10:55:01;3.97;;;0.90;;
22417;SDS011;11376;50.932;4.442;2024-03-02T10:57:32;4.38;;;0.90;;
22417;SDS011;11376;50.932;4.442;2024-03-02T11:00:15;3.33;;;0.90;;
22417;SDS011;11376;50.932;4.442;2024-03-02T11:02:46;6.97;;;1.10;;
22417;SDS011;11376;50.932;4.442;2024-03-02T11:05:28;4.43;;;0.90;;
22417;SDS011;11376;50.932;4.442;2024-03-02T11:07:57;7.35;;;0.70;;
22417;SDS011;11376;50.932;4.442;2024-03-02T11:10:29;3.63;;;0.70;;
22417;SDS011;11376;50.932;4.442;2024-03-02T11:13:08;5.10;;;1.00;;
22417;SDS011;11376;50.932;4.442;2024-03-02T11:15:36;5.72;;;1.13;;
22417;SDS011;11376;50.932;4.442;2024-03-02T11:18:03;6.35;;;1.17;;
22417;SDS011;11376;50.932;4.442;2024-03-02T11:20:33;3.17;;;0.50;;
22417;SDS011;11376;50.932;4.442;2024-03-02T11:23:05;3.67;;;0.63;;
22417;SDS011;11376;50.932;4.442;2024-03-02T11:25:32;4.97;;;1.20;;
22417;SDS011;11376;50.932;4.442;2024-03-02T11:28:01;9.73;;;1.10;;
22417;SDS011;11376;50.932;4.442;2024-03-02T11:32:57;4.30;;;0.90;;
22417;SDS011;11376;50.932;4.442;2024-03-02T11:35:33;7.15;;;0.90;;
22417;SDS011;11376;50.932;4.442;2024-03-02T11:38:11;4.35;;;0.68;;
22417;SDS011;11376;50.932;4.442;2024-03-02T11:40:37;3.90;;;0.70;;
22417;SDS011;11376;50.932;4.442;2024-03-02T11:43:04;4.47;;;0.80;;
22417;SDS011;11376;50.932;4.442;2024-03-02T11:45:31;4.72;;;0.80;;
22417;SDS011;11376;50.932;4.442;2024-03-02T11:47:58;5.70;;;0.77;;
22417;SDS011;11376;50.932;4.442;2024-03-02T11:50:33;4.05;;;0.82;;
22417;SDS011;11376;50.932;4.442;2024-03-02T11:53:02;4.95;;;0.90;;
22417;SDS011;11376;50.932;4.442;2024-03-02T11:55:36;5.47;;;1.23;;
22417;SDS011;11376;50.932;4.442;2024-03-02T11:58:03;4.40;;;0.80;;
22417;SDS011;11376;50.932;4.442;2024-03-02T12:00:29;4.30;;;0.88;;
22417;SDS011;11376;50.932;4.442;2024-03-02T12:02:59;4.95;;;0.68;;
22417;SDS011;11376;50.932;4.442;2024-03-02T12:05:25;4.60;;;0.90;;
22417;SDS011;11376;50.932;4.442;2024-03-02T12:07:55;5.95;;;0.98;;
22417;SDS011;11376;50.932;4.442;2024-03-02T12:10:25;3.80;;;0.82;;
22417;SDS011;11376;50.932;4.442;2024-03-02T12:12:58;4.93;;;0.95;;
22417;SDS011;11376;50.932;4.442;2024-03-02T12:15:28;4.43;;;0.88;;
22417;SDS011;11376;50.932;4.442;2024-03-02T12:17:56;5.13;;;1.00;;
22417;SDS011;11376;50.932;4.442;2024-03-02T12:20:23;5.95;;;1.00;;
22417;SDS011;11376;50.932;4.442;2024-03-02T12:22:52;7.45;;;1.10;;
22417;SDS011;11376;50.932;4.442;2024-03-02T12:25:19;7.10;;;0.98;;
22417;SDS011;11376;50.932;4.442;2024-03-02T12:27:46;4.57;;;1.00;;
22417;SDS011;11376;50.932;4.442;2024-03-02T12:30:13;6.03;;;0.73;;
22417;SDS011;11376;50.932;4.442;2024-03-02T12:32:39;4.95;;;1.08;;
22417;SDS011;11376;50.932;4.442;2024-03-02T12:35:05;5.63;;;0.82;;
22417;SDS011;11376;50.932;4.442;2024-03-02T12:37:31;5.20;;;1.00;;
22417;SDS011;11376;50.932;4.442;2024-03-02T12:39:57;3.78;;;0.80;;
22417;SDS011;11376;50.932;4.442;2024-03-02T12:42:23;5.80;;;0.93;;
22417;SDS011;11376;50.932;4.442;2024-03-02T12:44:51;5.15;;;0.70;;
22417;SDS011;11376;50.932;4.442;2024-03-02T12:47:20;4.30;;;0.70;;
22417;SDS011;11376;50.932;4.442;2024-03-02T12:49:45;4.32;;;0.80;;
22417;SDS011;11376;50.932;4.442;2024-03-02T12:52:12;6.95;;;1.08;;
22417;SDS011;11376;50.932;4.442;2024-03-02T12:54:38;4.05;;;0.90;;
22417;SDS011;11376;50.932;4.442;2024-03-02T12:57:04;4.97;;;0.60;;
22417;SDS011;11376;50.932;4.442;2024-03-02T12:59:29;3.65;;;0.70;;
22417;SDS011;11376;50.932;4.442;2024-03-02T13:01:56;3.63;;;0.65;;
22417;SDS011;11376;50.932;4.442;2024-03-02T13:04:26;3.58;;;0.57;;
22417;SDS011;11376;50.932;4.442;2024-03-02T13:06:53;2.97;;;0.70;;
22417;SDS011;11376;50.932;4.442;2024-03-02T13:09:21;4.05;;;0.80;;
22417;SDS011;11376;50.932;4.442;2024-03-02T13:11:47;3.25;;;0.70;;
22417;SDS011;11376;50.932;4.442;2024-03-02T13:14:13;3.35;;;0.70;;
22417;SDS011;11376;50.932;4.442;2024-03-02T13:16:39;3.80;;;0.63;;
22417;SDS011;11376;50.932;4.442;2024-03-02T13:19:09;4.00;;;1.02;;
22417;SDS011;11376;50.932;4.442;2024-03-02T13:21:36;4.40;;;0.75;;
22417;SDS011;11376;50.932;4.442;2024-03-02T13:24:01;2.55;;;0.55;;
22417;SDS011;11376;50.932;4.442;2024-03-02T13:26:28;3.40;;;0.57;;
22417;SDS011;11376;50.932;4.442;2024-03-02T13:28:53;3.28;;;0.63;;
22417;SDS011;11376;50.932;4.442;2024-03-02T13:31:19;2.40;;;0.50;;
22417;SDS011;11376;50.932;4.442;2024-03-02T13:33:45;3.70;;;0.73;;
22417;SDS011;11376;50.932;4.442;2024-03-02T13:36:12;5.57;;;1.00;;
22417;SDS011;11376;50.932;4.442;2024-03-02T13:38:37;5.28;;;0.80;;
22417;SDS011;11376;50.932;4.442;2024-03-02T13:41:03;4.22;;;0.63;;
22417;SDS011;11376;50.932;4.442;2024-03-02T13:43:29;5.28;;;0.50;;
22417;SDS011;11376;50.932;4.442;2024-03-02T13:45:57;2.58;;;0.63;;
22417;SDS011;11376;50.932;4.442;2024-03-02T13:48:24;5.22;;;0.75;;
22417;SDS011;11376;50.932;4.442;2024-03-02T13:50:51;2.70;;;0.60;;
22417;SDS011;11376;50.932;4.442;2024-03-02T13:53:18;3.63;;;0.57;;
22417;SDS011;11376;50.932;4.442;2024-03-02T13:55:44;5.00;;;0.70;;
22417;SDS011;11376;50.932;4.442;2024-03-02T13:58:09;4.53;;;0.60;;
22417;SDS011;11376;50.932;4.442;2024-03-02T14:00:36;3.65;;;0.73;;
22417;SDS011;11376;50.932;4.442;2024-03-02T14:03:03;3.22;;;0.60;;
22417;SDS011;11376;50.932;4.442;2024-03-02T14:05:32;4.97;;;0.70;;
22417;SDS011;11376;50.932;4.442;2024-03-02T14:07:58;5.13;;;0.70;;
22417;SDS011;11376;50.932;4.442;2024-03-02T14:10:25;2.80;;;0.57;;
22417;SDS011;11376;50.932;4.442;2024-03-02T14:12:52;2.25;;;0.40;;
22417;SDS011;11376;50.932;4.442;2024-03-02T14:15:17;3.80;;;0.80;;
22417;SDS011;11376;50.932;4.442;2024-03-02T14:17:43;3.10;;;0.68;;
22417;SDS011;11376;50.932;4.442;2024-03-02T14:20:09;3.35;;;0.60;;
22417;SDS011;11376;50.932;4.442;2024-03-02T14:22:37;3.80;;;0.60;;
22417;SDS011;11376;50.932;4.442;2024-03-02T14:25:03;2.75;;;0.60;;
22417;SDS011;11376;50.932;4.442;2024-03-02T14:27:29;2.17;;;0.40;;
22417;SDS011;11376;50.932;4.442;2024-03-02T14:29:54;3.20;;;0.40;;
22417;SDS011;11376;50.932;4.442;2024-03-02T14:32:20;2.70;;;0.47;;
22417;SDS011;11376;50.932;4.442;2024-03-02T14:34:46;2.13;;;0.70;;
22417;SDS011;11376;50.932;4.442;2024-03-02T14:37:12;3.17;;;0.50;;
22417;SDS011;11376;50.932;4.442;2024-03-02T14:39:39;2.35;;;0.50;;
22417;SDS011;11376;50.932;4.442;2024-03-02T14:42:05;2.47;;;0.60;;
22417;SDS011;11376;50.932;4.442;2024-03-02T14:44:31;3.05;;;0.60;;
22417;SDS011;11376;50.932;4.442;2024-03-02T14:46:59;4.78;;;0.40;;
22417;SDS011;11376;50.932;4.442;2024-03-02T14:49:27;2.05;;;0.50;;
22417;SDS011;11376;50.932;4.442;2024-03-02T14:51:54;3.67;;;0.43;;
22417;SDS011;11376;50.932;4.442;2024-03-02T14:54:20;5.38;;;0.65;;